WEATHER DATA

YESTERDAY
Time Temp. Dewp. Hum. Wind dir Wind speed Wind gust Bar. 1h Prec. 24h Prec.
00:04 10.6 4.7 67 339 1.1 3.9 1021.6 0.0000 0.0000
00:14 10.4 5.4 71 338 0.8 5 1021.8 0.0000 0.0000
00:23 10.1 5.5 73 337 0.3 1.9 1021.7 0.3111 0.3000
00:33 9.9 5.9 76 341 0.3 1.1 1021.6 0.3111 0.3000
00:44 9.8 6 77 333 0.3 1.1 1021.6 0.3111 0.3000
00:54 9.6 6 78 333 0.3 1.1 1021.4 0.4667 0.5000
01:03 9.5 5.9 78 325 0.3 1.1 1021.4 0.4667 0.5000
01:14 9.5 6 79 331 0.3 0.8 1021.5 0.3111 0.5000
01:24 9.4 5.9 79 0 0.8 1021.2 0.1555 0.5000
01:34 9.4 6.1 80 329 0.3 1.1 1021.3 0.1555 0.5000
01:44 9.3 6 80 332 0.3 0.8 1021.3 0.1555 0.5000
01:54 9.3 6 80 326 0.3 0.8 1021.3 0.0000 0.5000
02:04 9.2 6.1 81 0 0.8 1021.3 0.0000 0.5000
02:14 9.2 6.1 81 326 0.3 0.8 1021.3 0.0000 0.5000
02:25 9.1 6 81 335 0.3 0.8 1021 0.0000 0.5000
02:34 9.1 6 81 329 0.3 0.8 1020.9 0.0000 0.5000
02:44 9.1 6 81 333 0.3 0.8 1020.7 0.0000 0.5000
02:54 9.1 6.2 82 341 0.3 0.8 1020.6 0.0000 0.5000
03:05 9 6.1 82 334 0.3 0.8 1020.6 0.0000 0.5000
03:15 8.9 6.2 83 337 0.3 0.8 1020.5 0.0000 0.5000
03:24 8.9 6.2 83 333 0.3 0.8 1020.4 0.0000 0.5000
03:35 8.9 6.2 83 330 0.3 0.8 1020.5 0.0000 0.5000
03:45 8.9 6.2 83 0 0.8 1020.4 0.0000 0.5000
03:55 8.8 6.2 84 339 0.3 1.1 1020.3 0.0000 0.5000
04:05 8.8 6.2 84 335 0.3 0.8 1020.3 0.0000 0.5000
04:15 8.8 6.2 84 0 0.8 1020 0.0000 0.5000
04:25 8.8 6.2 84 327 0.3 0.8 1019.9 0.0000 0.5000
04:35 8.8 6.2 84 330 0.3 0.8 1019.9 0.0000 0.5000
04:46 8.7 6.3 85 326 0.3 0.8 1019.8 0.0000 0.5000
04:55 8.7 6.2 84 0 0.8 1019.7 0.0000 0.5000
05:05 8.7 6.3 85 0 0.8 1019.7 0.0000 0.5000
05:15 8.7 6.3 85 338 0.3 0.8 1019.7 0.0000 0.5000
05:26 8.7 6.3 85 0 0.8 1019.5 0.0000 0.5000
05:35 8.7 6.3 85 327 0.3 0.8 1019.4 0.0000 0.5000
05:45 8.7 6.3 85 336 0.3 0.8 1019 0.0000 0.5000
05:56 8.6 6.2 85 333 0.3 0.8 1018.7 0.0000 0.5000
06:06 8.6 6.2 85 0 0.8 1018.7 0.0000 0.5000
06:16 8.5 6.1 85 327 0.3 0.8 1018.5 0.0000 0.5000
06:25 8.6 6.2 85 0 0.8 1018.4 0.0000 0.5000
06:36 8.6 6.2 85 330 0.3 1.1 1018.3 0.0000 0.5000
06:46 8.6 6.1 84 0 0.8 1018.3 0.0000 0.5000
06:56 8.5 6.1 85 333 0.3 0.8 1018.3 0.0000 0.5000
07:06 8.5 6.1 85 330 0.3 0.8 1018.1 0.0000 0.5000
07:16 8.5 6.1 85 341 0.3 0.8 1017.9 0.0000 0.5000
07:26 8.6 6.2 85 329 0.3 0.8 1017.9 0.1555 0.6000
07:36 8.5 6.1 85 326 0.3 0.8 1017.7 0.3111 0.8000
07:47 8.6 6.4 86 329 0.3 0.8 1017.9 0.4667 0.9000
07:56 8.6 6.4 86 335 0.3 1.1 1017.7 0.7778 1.2000
08:06 8.5 6.3 86 329 0.3 0.8 1017.6 0.9334 1.4000
08:17 8.5 6.5 87 0 0.8 1017.5 1.0890 1.6000
08:27 8.5 6.5 87 315 0.3 1.1 1017.3 1.0890 1.7000
08:36 8.5 6.6 88 338 0.3 0.8 1017.4 0.7778 1.7000
08:46 8.5 6.6 88 315 0.3 1.1 1017.3 0.7778 1.7000
08:57 8.5 6.8 89 341 0.3 1.1 1017.1 0.3111 1.7000
09:07 8.5 6.8 89 345 0.3 1.4 1017.1 0.1555 1.7000
09:17 8.6 7.1 90 338 0.3 1.9 1017 0.3111 1.9000
09:27 8.6 7.1 90 341 0.8 1.9 1016.7 0.1555 1.9000
09:37 8.6 7.1 90 333 0.3 1.1 1016.9 0.1555 1.9000
09:47 8.7 7.3 91 333 0.3 1.4 1016.7 0.1555 1.9000
09:57 8.8 7.4 91 315 0.3 1.4 1016.5 0.3111 2.0000
10:07 8.9 7.7 92 321 0.3 1.4 1016.2 0.3111 2.2000
10:17 9 7.8 92 225 0.3 2.2 1016.2 0.3111 2.2000
10:27 9.1 7.7 91 315 0.3 1.1 1016.2 0.3111 2.2000
10:38 9.1 7.7 91 329 0.3 1.1 1016.2 0.3111 2.2000
10:48 9.2 8 92 315 0.3 1.1 1015.7 0.1555 2.2000
10:57 9.3 8.1 92 270 0.3 1.1 1015.7 0.0000 2.2000
11:07 9.4 8.2 92 320 0.3 0.8 1015.7 0.1555 2.3000
11:18 9.5 8.3 92 315 0.3 0.8 1015.4 0.1555 2.3000
11:28 9.7 8.5 92 225 0.3 1.1 1015.1 0.1555 2.3000
11:38 9.9 8.8 93 192 0.3 1.9 1015 0.1555 2.3000
11:48 10 8.9 93 315 0.3 1.1 1015 0.1555 2.3000
11:58 10.1 9 93 303 0.3 1.1 1014.7 0.3111 2.5000
12:08 10.3 9.2 93 270 0.3 1.1 1014.4 0.1555 2.5000
12:18 10.6 9.5 93 306 0.3 1.1 1014.3 0.3111 2.6000
12:28 10.8 9.7 93 324 0.3 1.4 1014.1 0.3111 2.6000
12:48 11.1 10 93 315 0.3 1.4 1013.7 0.3111 2.6000
12:58 11.2 10.3 94 329 0.3 1.1 1013.5 0.7778 3.3000
13:09 11.4 10.3 93 329 0.3 1.1 1013 0.9334 3.4000
13:18 11.6 10.5 93 180 0.3 1.9 1012.8 0.9334 3.6000
13:28 11.7 10.6 93 315 0.3 0.8 1012.7 1.4001 4.0000
13:39 11.8 10.7 93 326 0.3 1.1 1012.4 1.5557 4.2000
13:49 11.9 10.8 93 270 0.3 1.9 1012.1 3.1114 5.8000
13:58 12 10.9 93 270 0.3 1.4 1011.8 2.4891 5.9000
14:19 12 11.1 94 225 0.3 1.4 1010.9 2.4891 6.1000
14:29 12.1 11.2 94 187 0.3 1.9 1010.6 2.1780 6.2000
14:39 12.2 11.4 95 315 0.8 3.9 1010 2.0224 6.2000
14:49 12.3 11.5 95 347 0.8 2.8 1009.6 0.4667 6.2000
14:59 12.4 11.6 95 315 0.8 3.3 1009.2 0.4667 6.4000
15:09 12.5 11.9 96 341 0.8 2.2 1009 0.3111 6.4000
15:19 12.6 12 96 306 0.8 2.2 1008.4 0.3111 6.4000
15:29 12.7 12.1 96 315 0.3 2.2 1008.1 0.1555 6.4000
15:39 12.8 12.2 96 326 0.3 1.4 1007.7 0.3111 6.5000
15:49 12.9 12.4 97 336 0.3 1.4 1007.5 0.3111 6.5000
16:00 13 12.5 97 225 0.3 1.4 1007.2 0.1555 6.5000
16:10 13.2 12.7 97 270 0.3 1.1 1007 0.1555 6.5000
16:19 13.7 13.5 99 168 1.1 4.2 1006.5 0.3111 6.7000
16:29 14.3 14.1 99 150 0.8 3.9 1006.1 0.3111 6.7000
16:40 14.7 14.5 99 180 0.8 2.8 1006 0.1555 6.7000
16:50 15.2 14.9 98 180 0.3 2.2 1005.5 0.1555 6.7000
17:00 15.6 15.3 98 158 1.1 5 1004.9 0.1555 6.7000
17:10 16.1 15.6 97 90 1.1 3.3 1004.6 0.1555 6.7000
17:20 16.5 15.7 95 135 1.1 4.4 1004.2 0.0000 6.7000
17:30 16.7 15.6 93 135 0.8 2.8 1004 0.0000 6.7000
17:40 16.8 15.5 92 146 1.1 4.4 1003.9 0.0000 6.7000
17:50 16.9 15.4 91 161 1.1 3.9 1003.7 0.0000 6.7000
17:52 16.9 15.4 91 138 1.1 7.2 1003.4 0.0000 6.7000
18:02 17 15.3 90 186 0.8 3.1 1003.1 0.0000 6.7000
18:15 16.9 15.3 90 90 0.8 5.8 1003.2 0.4667 7.2000
18:30 16.5 15.2 92 335 2.8 7.5 1004.3 11.8235 18.5000
18:39 15 13.2 89 320 3.1 7.5 1004.6 22.7137 29.4000
18:50 14.1 12.7 91 322 1.9 4.2 1004.8 24.2694 31.0000
19:00 13.6 12.5 93 313 1.4 3.9 1004.3 25.3584 32.0000
19:10 13.3 12.5 95 316 1.1 2.8 1003.7 25.9807 32.7000
19:20 13.2 12.4 95 309 1.4 2.8 1003.7 23.9582 33.1000
19:30 13.1 12.5 96 310 1.4 3.3 1003.6 14.6238 33.1000
19:40 13 12.5 97 320 1.9 3.9 1003.9 2.3336 33.3000
20:01 13 12.5 97 323 1.4 3.3 1004.7 1.2445 33.3000
20:10 12.9 12.4 97 326 2.8 7.2 1006.1 1.0890 33.8000
20:20 12.4 11.6 95 329 2.8 5.8 1006.1 0.7778 33.9000
20:30 11.7 10.8 94 331 2.8 6.9 1005.8 0.7778 33.9000
20:41 11.2 10.3 94 329 2.2 4.4 1006.9 0.6222 33.9000
20:50 10.8 9.9 94 332 2.2 5.8 1007.7 0.6222 33.9000
21:00 10.5 9.6 94 329 2.2 6.9 1008.2 0.7778 34.1000
21:11 10.1 9.2 94 334 3.1 6.9 1008.8 0.3111 34.1000
21:21 9.8 8.9 94 322 2.2 6.1 1008.8 0.1555 34.1000
21:31 9.6 8.7 94 321 2.2 4.4 1009.3 0.3111 34.2000
21:40 9.4 8.5 94 320 2.2 5.8 1009.4 0.7778 34.7000
21:51 9 7.9 93 331 2.8 5.3 1010.2 1.0890 35.0000
22:01 8.5 7.4 93 328 2.2 8.1 1011.7 1.2445 35.3000
22:11 8.1 7 93 324 2.2 5.8 1011.7 1.5557 35.6000
22:21 7.7 6.6 93 336 3.1 7.2 1012.7 2.1780 36.2000
22:31 7.5 6.6 94 326 2.2 5.8 1013.2 2.4891 36.7000
22:41 7.2 6.3 94 325 2.2 6.4 1013 2.1780 37.2000
23:02 6.7 6 95 325 2.2 5.3 1014.2 2.4891 37.8000
23:11 6.6 5.9 95 321 2.2 5.3 1014.8 2.4891 38.1000
23:21 6.5 5.8 95 313 1.9 4.4 1015.6 1.8668 38.1000
23:32 6.3 5.6 95 329 3.1 6.4 1016 1.4001 38.1000
23:42 6.1 5.4 95 336 3.1 7.2 1016.5 0.9334 38.1000
23:51 5.9 5.2 95 328 2.2 8.1 1016.9 0.6222 38.1000

DAY STATISTIC

2018-09-23
TEMPERATURE
AVERAGE
10.4
HIGH
17.0
18:02
LOW
5.9
23:51
PRESSURE
AVERAGE
1014.0
HIGH
1021.8
00:14
LOW
1003.1
18:02
DEWPOINT
AVERAGE
8.7
HIGH
15.7
17:20
LOW
4.7
00:04
HUMIDITY
AVERAGE
89
HIGH
99
16:19
LOW
67
00:04
WIND SPEED
AVERAGE
0.8
HIGH
3.1
18:39
WIND GUST
AVERAGE
2.5
HIGH
8.1
22:01
WIND DIRECTION
PREVAILING
NW
64%
N
10.1
NE
0.0
E
1.4
SE
3.6
S
6.5
SW
2.9
W
3.6
NW
64.0
PRECIPITATION
RAIN HOUR
26.0
RAIN DAY
38.1
TEMPERATURE (°C)
LOW
5.9
HIGH
17.0
AVERAGE
10.4
PRESSURE (hpa)
LOW
1003.1
HIGH
1021.8
AVERAGE
1014.0
DEVICE